createdAt,value
2018-06-22T00:00:27.527Z,12.33
2018-06-22T00:01:27.544Z,12.33
2018-06-22T00:02:27.562Z,12.34
2018-06-22T00:03:27.584Z,12.40
2018-06-22T00:04:27.600Z,12.43
2018-06-22T00:05:27.617Z,12.43
2018-06-22T00:06:27.642Z,12.44
2018-06-22T00:07:27.655Z,12.44
2018-06-22T00:08:27.676Z,12.28
2018-06-22T00:09:27.693Z,12.25
2018-06-22T00:10:27.711Z,12.34
2018-06-22T00:11:27.730Z,12.29
2018-06-22T00:12:27.749Z,12.29
2018-06-22T00:13:27.769Z,12.25
2018-06-22T00:14:27.789Z,12.28
2018-06-22T00:15:27.801Z,12.20
2018-06-22T00:16:27.821Z,12.11
2018-06-22T00:17:27.840Z,12.10
2018-06-22T00:18:27.856Z,12.20
2018-06-22T00:19:27.874Z,12.04
2018-06-22T00:20:27.894Z,12.07
2018-06-22T00:21:27.911Z,12.01
2018-06-22T00:22:27.929Z,11.98
2018-06-22T00:23:27.948Z,12.03
2018-06-22T00:24:27.969Z,11.95
2018-06-22T00:25:27.986Z,11.95
2018-06-22T00:26:28.005Z,12.03
2018-06-22T00:27:28.029Z,11.95
2018-06-22T00:28:28.042Z,11.86
2018-06-22T00:29:28.059Z,11.95
2018-06-22T00:30:28.078Z,12.01
2018-06-22T00:31:28.096Z,11.97
2018-06-22T00:32:28.116Z,12.03
2018-06-22T00:33:28.133Z,12.01
2018-06-22T00:34:28.154Z,12.03
2018-06-22T00:35:28.168Z,12.00
2018-06-22T00:36:28.188Z,12.01
2018-06-22T00:37:28.207Z,11.86
2018-06-22T00:38:28.224Z,12.01
2018-06-22T00:39:28.245Z,12.04
2018-06-22T00:40:28.262Z,12.00
2018-06-22T00:41:28.280Z,11.95
2018-06-22T00:42:28.297Z,12.01
2018-06-22T00:43:28.312Z,11.95
2018-06-22T00:44:28.332Z,11.89
2018-06-22T00:45:28.349Z,11.97
2018-06-22T00:46:28.375Z,11.95
2018-06-22T00:47:28.388Z,12.03
2018-06-22T00:48:28.408Z,11.94
2018-06-22T00:49:28.421Z,11.98
2018-06-22T00:50:28.443Z,11.91
2018-06-22T00:51:28.460Z,12.01
2018-06-22T00:52:28.477Z,12.01
2018-06-22T00:53:28.497Z,12.03
2018-06-22T00:54:28.515Z,11.97
2018-06-22T00:55:28.533Z,12.03
2018-06-22T00:56:28.550Z,11.88
2018-06-22T00:57:28.571Z,12.04
2018-06-22T00:58:28.585Z,11.98
2018-06-22T00:59:28.606Z,11.94
2018-06-22T01:00:28.625Z,11.91
2018-06-22T01:01:28.643Z,11.91
2018-06-22T01:02:28.661Z,11.86
2018-06-22T01:03:28.680Z,11.89
2018-06-22T01:04:28.696Z,11.97
2018-06-22T01:05:28.715Z,11.95
2018-06-22T01:06:28.733Z,11.98
2018-06-22T01:07:28.750Z,11.98
2018-06-22T01:08:28.770Z,11.97
2018-06-22T01:09:28.787Z,11.97
2018-06-22T01:10:28.804Z,12.04
2018-06-22T01:11:28.822Z,12.03
2018-06-22T01:12:28.841Z,11.98
2018-06-22T01:13:28.858Z,11.98
2018-06-22T01:14:28.879Z,11.94
2018-06-22T01:15:28.895Z,12.04
2018-06-22T01:16:28.917Z,11.97
2018-06-22T01:17:28.931Z,11.98
2018-06-22T01:18:28.949Z,12.03
2018-06-22T01:19:28.972Z,12.01
2018-06-22T01:20:28.990Z,12.10
2018-06-22T01:21:29.004Z,12.01
2018-06-22T01:22:29.026Z,12.13
2018-06-22T01:23:29.041Z,12.10
2018-06-22T01:24:29.058Z,12.08
2018-06-22T01:25:29.076Z,12.03
2018-06-22T01:26:29.098Z,12.23
2018-06-22T01:27:29.113Z,12.07
2018-06-22T01:28:29.131Z,12.13
2018-06-22T01:29:29.151Z,12.16
2018-06-22T01:30:29.169Z,12.15
2018-06-22T01:31:29.189Z,12.23
2018-06-22T01:32:29.210Z,12.20
2018-06-22T01:33:29.225Z,12.20
2018-06-22T01:34:29.240Z,12.20
2018-06-22T01:35:29.259Z,12.05
2018-06-22T01:36:29.277Z,12.08
2018-06-22T01:37:29.295Z,12.03
2018-06-22T01:38:29.316Z,12.05
2018-06-22T01:39:29.331Z,12.01
2018-06-22T01:40:29.349Z,12.03
2018-06-22T01:41:29.369Z,12.10
2018-06-22T01:42:29.388Z,12.08
2018-06-22T01:43:29.404Z,12.18
2018-06-22T01:44:29.424Z,12.03
2018-06-22T01:45:29.445Z,12.07
2018-06-22T01:46:29.464Z,12.08
2018-06-22T01:47:29.475Z,12.15
2018-06-22T01:48:29.497Z,12.15
2018-06-22T01:49:29.513Z,12.20
2018-06-22T01:50:29.533Z,12.22
2018-06-22T01:51:29.549Z,12.29
2018-06-22T01:52:29.570Z,12.28
2018-06-22T01:53:29.585Z,12.23
2018-06-22T01:54:29.605Z,12.20
2018-06-22T01:55:29.624Z,12.26
2018-06-22T01:56:29.645Z,12.25
2018-06-22T01:57:29.658Z,12.31
2018-06-22T01:58:29.678Z,12.26
2018-06-22T01:59:29.694Z,12.28
2018-06-22T02:00:29.714Z,12.26
2018-06-22T02:01:29.730Z,12.19
2018-06-22T02:02:29.750Z,12.29
2018-06-22T02:03:29.773Z,12.31
2018-06-22T02:04:29.786Z,12.29
2018-06-22T02:05:29.804Z,12.37
2018-06-22T02:06:29.828Z,12.43
2018-06-22T02:07:29.840Z,12.34
2018-06-22T02:08:29.862Z,12.38
2018-06-22T02:09:29.878Z,12.36
2018-06-22T02:10:29.896Z,12.44
2018-06-22T02:11:29.913Z,12.47
2018-06-22T02:12:29.932Z,12.43
2018-06-22T02:13:29.949Z,12.47
2018-06-22T02:14:29.967Z,12.40
2018-06-22T02:15:29.989Z,12.44
2018-06-22T02:16:30.005Z,12.43
2018-06-22T02:17:30.022Z,12.38
2018-06-22T02:18:30.042Z,12.40
2018-06-22T02:19:30.062Z,12.37
2018-06-22T02:20:30.077Z,12.25
2018-06-22T02:21:30.095Z,12.29
2018-06-22T02:22:30.113Z,12.41
2018-06-22T02:23:30.134Z,12.28
2018-06-22T02:24:30.150Z,12.22
2018-06-22T02:25:30.169Z,12.22
2018-06-22T02:26:30.189Z,12.22
2018-06-22T02:27:30.205Z,12.16
2018-06-22T02:28:30.223Z,12.22
2018-06-22T02:29:30.240Z,12.04
2018-06-22T02:30:30.259Z,12.04
2018-06-22T02:31:30.282Z,12.18
2018-06-22T02:32:30.296Z,12.26
2018-06-22T02:33:30.318Z,12.07
2018-06-22T02:34:30.335Z,12.04
2018-06-22T02:35:30.352Z,12.10
2018-06-22T02:36:30.368Z,12.11
2018-06-22T02:37:30.386Z,12.13
2018-06-22T02:38:30.404Z,12.15
2018-06-22T02:39:30.425Z,12.11
2018-06-22T02:40:30.443Z,12.05
2018-06-22T02:41:30.460Z,12.07
2018-06-22T02:42:30.479Z,12.15
2018-06-22T02:43:30.496Z,12.05
2018-06-22T02:44:30.514Z,12.04
2018-06-22T02:45:30.532Z,12.05
2018-06-22T02:46:30.553Z,12.01
2018-06-22T02:47:30.568Z,12.01
2018-06-22T02:48:30.589Z,12.01
2018-06-22T02:49:30.609Z,12.11
2018-06-22T02:50:30.626Z,12.10
2018-06-22T02:51:30.641Z,12.10
2018-06-22T02:52:30.663Z,12.11
2018-06-22T02:53:30.679Z,12.10
2018-06-22T02:54:30.696Z,12.10
2018-06-22T02:55:30.715Z,12.16
2018-06-22T02:56:30.736Z,12.05
2018-06-22T02:57:30.749Z,12.08
2018-06-22T02:58:30.771Z,12.08
2018-06-22T02:59:30.786Z,12.07
2018-06-22T03:00:30.803Z,12.05
2018-06-22T03:01:30.827Z,12.18
2018-06-22T03:02:30.846Z,12.10
2018-06-22T03:03:30.861Z,12.07
2018-06-22T03:04:30.877Z,12.01
2018-06-22T03:05:30.894Z,12.03
2018-06-22T03:06:30.916Z,12.07
2018-06-22T03:07:30.935Z,12.10
2018-06-22T03:08:30.950Z,12.05
2018-06-22T03:09:30.966Z,12.07
2018-06-22T03:10:30.988Z,12.08
2018-06-22T03:11:31.006Z,12.19
2018-06-22T03:12:31.024Z,12.26
2018-06-22T03:13:31.039Z,12.29
2018-06-22T03:14:31.060Z,12.33
2018-06-22T03:15:31.080Z,12.37
2018-06-22T03:16:31.099Z,12.33
2018-06-22T03:17:31.114Z,12.41
2018-06-22T03:18:31.134Z,12.40
2018-06-22T03:19:31.149Z,12.29
2018-06-22T03:20:31.167Z,12.40
2018-06-22T03:21:31.183Z,12.41
2018-06-22T03:22:31.206Z,12.36
2018-06-22T03:23:31.221Z,12.37
2018-06-22T03:24:31.240Z,12.36
2018-06-22T03:25:31.257Z,12.25
2018-06-22T03:26:31.276Z,12.37
2018-06-22T03:27:31.294Z,12.44
2018-06-22T03:28:31.312Z,12.47
2018-06-22T03:29:31.332Z,12.38
2018-06-22T03:30:31.352Z,12.36
2018-06-22T03:31:31.372Z,12.28
2018-06-22T03:32:31.387Z,12.41
2018-06-22T03:33:31.404Z,12.26
2018-06-22T03:34:31.423Z,12.25
2018-06-22T03:35:31.441Z,12.26
2018-06-22T03:36:31.460Z,12.25
2018-06-22T03:37:31.479Z,12.34
2018-06-22T03:38:31.496Z,12.29
2018-06-22T03:39:31.520Z,12.25
2018-06-22T03:40:31.534Z,12.37
2018-06-22T03:41:31.550Z,12.26
2018-06-22T03:42:31.566Z,12.29
2018-06-22T03:43:31.585Z,12.31
2018-06-22T03:44:31.605Z,12.28
2018-06-22T03:45:31.620Z,12.38
2018-06-22T03:46:31.641Z,12.33
2018-06-22T03:47:31.660Z,12.28
2018-06-22T03:48:31.680Z,12.18
2018-06-22T03:49:31.696Z,12.26
2018-06-22T03:50:31.716Z,12.16
2018-06-22T03:51:31.730Z,12.13
2018-06-22T03:52:31.751Z,12.15
2018-06-22T03:53:31.770Z,12.04
2018-06-22T03:54:31.787Z,12.08
2018-06-22T03:55:31.804Z,12.03
2018-06-22T03:56:31.825Z,11.98
2018-06-22T03:57:31.848Z,12.03
2018-06-22T03:58:31.860Z,11.86
2018-06-22T03:59:31.878Z,11.89
2018-06-22T04:00:31.899Z,11.97
2018-06-22T04:01:31.915Z,11.95
2018-06-22T04:02:31.934Z,12.01
2018-06-22T04:03:31.950Z,11.94
2018-06-22T04:04:31.970Z,11.95
2018-06-22T04:05:31.987Z,11.82
2018-06-22T04:06:32.006Z,11.88
2018-06-22T04:07:32.027Z,11.91
2018-06-22T04:08:32.043Z,11.79
2018-06-22T04:09:32.058Z,11.82
2018-06-22T04:10:32.079Z,11.79
2018-06-22T04:11:32.097Z,11.86
2018-06-22T04:12:32.118Z,11.79
2018-06-22T04:13:32.131Z,11.81
2018-06-22T04:14:32.149Z,11.84
2018-06-22T04:15:32.171Z,11.79
2018-06-22T04:16:32.187Z,11.79
2018-06-22T04:17:32.203Z,11.78
2018-06-22T04:18:32.222Z,11.89
2018-06-22T04:19:32.240Z,11.75
2018-06-22T04:20:32.258Z,11.89
2018-06-22T04:21:32.280Z,11.86
2018-06-22T04:22:32.298Z,11.91
2018-06-22T04:23:32.314Z,11.95
2018-06-22T04:24:32.331Z,11.97
2018-06-22T04:25:32.348Z,11.94
2018-06-22T04:26:32.366Z,11.85
2018-06-22T04:27:32.384Z,11.82
2018-06-22T04:28:32.403Z,11.91
2018-06-22T04:29:32.419Z,11.98
2018-06-22T04:30:32.443Z,11.86
2018-06-22T04:31:32.458Z,11.89
2018-06-22T04:32:32.479Z,11.91
2018-06-22T04:33:32.495Z,11.98
2018-06-22T04:34:32.514Z,11.86
2018-06-22T04:35:32.531Z,11.95
2018-06-22T04:36:32.549Z,11.94
2018-06-22T04:37:32.568Z,12.04
2018-06-22T04:38:32.589Z,11.97
2018-06-22T04:39:32.602Z,12.03
2018-06-22T04:40:32.623Z,12.03
2018-06-22T04:41:32.644Z,12.07
2018-06-22T04:42:32.659Z,12.01
2018-06-22T04:43:32.677Z,12.04
2018-06-22T04:44:32.696Z,12.03
2018-06-22T04:45:32.712Z,12.07
2018-06-22T04:46:32.731Z,12.01
2018-06-22T04:47:32.780Z,12.01
2018-06-22T04:48:32.770Z,12.01
2018-06-22T04:49:32.786Z,12.01
2018-06-22T04:50:32.801Z,12.05
2018-06-22T04:51:32.821Z,12.07
2018-06-22T04:52:32.841Z,11.97
2018-06-22T04:53:32.856Z,12.04
2018-06-22T04:54:32.881Z,11.97
2018-06-22T04:55:32.892Z,12.05
2018-06-22T04:56:32.912Z,12.04
2018-06-22T04:57:32.933Z,12.04
2018-06-22T04:58:32.949Z,12.04
2018-06-22T04:59:32.965Z,11.89
2018-06-22T05:00:32.984Z,11.98
2018-06-22T05:01:33.005Z,11.91
2018-06-22T05:02:33.019Z,11.88
2018-06-22T05:03:33.043Z,11.86
2018-06-22T05:04:33.057Z,11.97
2018-06-22T05:05:33.078Z,12.04
2018-06-22T05:06:33.095Z,11.97
2018-06-22T05:07:33.114Z,12.04
2018-06-22T05:08:33.131Z,11.91
2018-06-22T05:09:33.148Z,11.89
2018-06-22T05:10:33.166Z,11.86
2018-06-22T05:11:33.183Z,11.95
2018-06-22T05:12:33.205Z,11.94
2018-06-22T05:13:33.222Z,11.97
2018-06-22T05:14:33.238Z,11.88
2018-06-22T05:15:33.256Z,11.89
2018-06-22T05:16:33.279Z,11.88
2018-06-22T05:17:33.296Z,11.88
2018-06-22T05:18:33.311Z,11.88
2018-06-22T05:19:33.330Z,11.91
2018-06-22T05:20:33.348Z,11.86
2018-06-22T05:21:33.365Z,11.94
2018-06-22T05:22:33.436Z,11.86
2018-06-22T05:23:33.402Z,11.94
2018-06-22T05:24:33.425Z,11.85
2018-06-22T05:25:33.439Z,11.88
2018-06-22T05:26:33.460Z,11.97
2018-06-22T05:27:33.477Z,11.91
2018-06-22T05:28:33.498Z,11.97
2018-06-22T05:29:33.511Z,11.95
2018-06-22T05:30:33.530Z,11.94
2018-06-22T05:31:33.551Z,11.88
2018-06-22T05:32:33.567Z,12.01
2018-06-22T05:33:33.588Z,11.95
2018-06-22T05:34:33.607Z,11.82
2018-06-22T05:35:33.623Z,11.85
2018-06-22T05:36:33.641Z,11.89
2018-06-22T05:37:33.661Z,11.91
2018-06-22T05:38:33.676Z,11.95
2018-06-22T05:39:33.697Z,11.82
2018-06-22T05:40:33.713Z,11.82
2018-06-22T05:41:33.773Z,11.79
2018-06-22T05:42:33.752Z,11.81
2018-06-22T05:43:33.771Z,11.84
2018-06-22T05:44:33.789Z,11.88
2018-06-22T05:45:33.806Z,11.98
2018-06-22T05:46:33.825Z,12.03
2018-06-22T05:47:33.846Z,12.00
2018-06-22T05:48:33.859Z,12.11
2018-06-22T05:49:33.877Z,12.20
2018-06-22T05:50:33.915Z,12.37
2018-06-22T05:51:33.916Z,12.40
2018-06-22T05:52:33.934Z,12.33
2018-06-22T05:53:33.953Z,12.38
2018-06-22T05:54:33.969Z,12.40
2018-06-22T05:55:33.990Z,12.37
2018-06-22T05:56:34.074Z,12.43
2018-06-22T05:57:34.029Z,12.48
2018-06-22T05:58:34.042Z,12.43
2018-06-22T05:59:34.065Z,12.62
2018-06-22T06:00:34.086Z,12.71
2018-06-22T06:01:34.099Z,12.78
2018-06-22T06:02:34.122Z,12.84
2018-06-22T06:03:34.173Z,12.81
2018-06-22T06:04:34.163Z,12.69
2018-06-22T06:05:34.174Z,12.73
2018-06-22T06:06:34.191Z,12.76
2018-06-22T06:07:34.223Z,12.70
2018-06-22T06:08:34.232Z,12.63
2018-06-22T06:09:34.246Z,12.58
2018-06-22T06:10:34.271Z,12.66
2018-06-22T06:11:34.287Z,12.69
2018-06-22T06:12:34.324Z,12.51
2018-06-22T06:13:34.322Z,12.59
2018-06-22T06:14:34.343Z,12.65
2018-06-22T06:15:34.360Z,12.76
2018-06-22T06:16:34.385Z,12.62
2018-06-22T06:17:34.401Z,12.66
2018-06-22T06:18:34.420Z,12.73
2018-06-22T06:19:34.435Z,12.70
2018-06-22T06:20:34.454Z,12.77
2018-06-22T06:21:34.473Z,12.63
2018-06-22T06:22:34.495Z,12.62
2018-06-22T06:23:34.515Z,12.63
2018-06-22T06:24:34.534Z,12.89
2018-06-22T06:25:34.553Z,12.96
2018-06-22T06:26:34.568Z,13.09
2018-06-22T06:27:34.587Z,13.10
2018-06-22T06:28:34.613Z,12.96
2018-06-22T06:29:34.624Z,12.81
2018-06-22T06:30:34.646Z,12.96
2018-06-22T06:31:34.663Z,13.01
2018-06-22T06:32:34.683Z,12.94
2018-06-22T06:33:34.703Z,12.84
2018-06-22T06:34:34.726Z,12.84
2018-06-22T06:35:34.743Z,12.77
2018-06-22T06:36:34.759Z,12.81
2018-06-22T06:37:34.779Z,12.86
2018-06-22T06:38:34.802Z,12.86
2018-06-22T06:39:34.818Z,12.83
2018-06-22T06:40:34.835Z,12.95
2018-06-22T06:41:34.853Z,12.99
2018-06-22T06:42:34.872Z,13.02
2018-06-22T06:43:34.892Z,12.91
2018-06-22T06:44:34.913Z,13.09
2018-06-22T06:45:34.932Z,13.16
2018-06-22T06:46:34.949Z,13.07
2018-06-22T06:47:34.967Z,13.20
2018-06-22T06:48:34.988Z,13.17
2018-06-22T06:49:35.028Z,13.28
2018-06-22T06:50:35.025Z,13.21
2018-06-22T06:51:35.046Z,13.29
2018-06-22T06:52:35.065Z,13.36
2018-06-22T06:53:35.085Z,13.40
2018-06-22T06:54:35.104Z,13.40
2018-06-22T06:55:35.120Z,13.50
2018-06-22T06:56:35.143Z,13.44
2018-06-22T06:57:35.160Z,13.44
2018-06-22T06:58:35.179Z,13.42
2018-06-22T06:59:35.205Z,13.44
2018-06-22T07:00:35.216Z,13.50
2018-06-22T07:01:35.240Z,13.44
2018-06-22T07:02:35.303Z,13.40
2018-06-22T07:03:35.276Z,13.35
2018-06-22T07:04:35.295Z,13.40
2018-06-22T07:05:35.312Z,13.28
2018-06-22T07:06:35.333Z,13.27
2018-06-22T07:07:35.353Z,13.36
2018-06-22T07:08:35.375Z,13.45
2018-06-22T07:09:35.393Z,13.70
2018-06-22T07:10:35.414Z,13.91
2018-06-22T07:11:35.430Z,14.03
2018-06-22T07:12:35.456Z,14.49
2018-06-22T07:13:35.474Z,14.48
2018-06-22T07:14:35.491Z,15.16
2018-06-22T07:15:35.507Z,15.68
2018-06-22T07:16:35.528Z,16.14
2018-06-22T07:17:35.547Z,16.73
2018-06-22T07:18:35.569Z,16.99
2018-06-22T07:19:35.587Z,16.88
2018-06-22T07:20:35.606Z,16.92
2018-06-22T07:21:35.627Z,17.25
2018-06-22T07:22:35.649Z,17.52
2018-06-22T07:23:35.667Z,17.36
2018-06-22T07:24:35.691Z,16.65
2018-06-22T07:25:35.707Z,16.47
2018-06-22T07:26:35.730Z,15.96
2018-06-22T07:27:35.753Z,15.60
2018-06-22T07:28:35.773Z,15.22
2018-06-22T07:29:35.794Z,15.07
2018-06-22T07:30:35.838Z,15.16
2018-06-22T07:31:35.834Z,15.16
2018-06-22T07:32:35.855Z,15.49
2018-06-22T07:33:35.878Z,16.33
2018-06-22T07:34:35.899Z,17.03
2018-06-22T07:35:35.919Z,17.49
2018-06-22T07:36:35.943Z,18.17
2018-06-22T07:37:35.965Z,18.53
2018-06-22T07:38:35.984Z,18.87
2018-06-22T07:39:36.008Z,18.50
2018-06-22T07:40:36.027Z,18.35
2018-06-22T07:41:36.048Z,18.17
2018-06-22T07:42:36.073Z,18.27
2018-06-22T07:43:36.094Z,18.32
2018-06-22T07:44:36.120Z,18.66
2018-06-22T07:45:36.143Z,17.88
2018-06-22T07:46:36.160Z,17.99
2018-06-22T07:47:36.183Z,18.06
2018-06-22T07:48:36.205Z,18.78
2018-06-22T07:49:36.228Z,18.94
2018-06-22T07:50:36.253Z,18.19
2018-06-22T07:51:36.274Z,17.46
2018-06-22T07:52:36.297Z,16.82
2018-06-22T07:53:36.322Z,16.48
2018-06-22T07:54:36.347Z,16.22
2018-06-22T07:55:36.368Z,16.33
2018-06-22T07:56:36.390Z,16.17
2018-06-22T07:57:36.417Z,16.00
2018-06-22T07:58:36.486Z,16.51
2018-06-22T07:59:36.462Z,16.45
2018-06-22T08:00:36.485Z,17.71
2018-06-22T08:01:36.511Z,17.79
2018-06-22T08:02:36.532Z,17.77
2018-06-22T08:03:36.554Z,17.25
2018-06-22T08:04:36.576Z,17.81
2018-06-22T08:05:36.598Z,17.83
2018-06-22T08:06:36.623Z,18.42
2018-06-22T08:07:36.643Z,17.94
2018-06-22T08:08:36.669Z,17.76
2018-06-22T08:09:36.690Z,17.18
2018-06-22T08:10:36.715Z,17.87
2018-06-22T08:11:36.741Z,18.23
2018-06-22T08:12:36.761Z,17.21
2018-06-22T08:13:36.786Z,17.35
2018-06-22T08:14:36.805Z,17.18
2018-06-22T08:15:36.827Z,16.67
2018-06-22T08:16:36.850Z,16.88
2018-06-22T08:17:36.924Z,16.76
2018-06-22T08:18:36.900Z,16.59
2018-06-22T08:19:36.918Z,16.40
2018-06-22T08:20:36.944Z,16.18
2018-06-22T08:21:36.967Z,16.18
2018-06-22T08:22:36.991Z,16.44
2018-06-22T08:23:37.052Z,17.15
2018-06-22T08:24:37.035Z,17.10
2018-06-22T08:25:37.055Z,17.17
2018-06-22T08:26:37.080Z,16.92
2018-06-22T08:27:37.106Z,16.45
2018-06-22T08:28:37.124Z,16.13
2018-06-22T08:29:37.149Z,16.02
2018-06-22T08:30:37.170Z,16.10
2018-06-22T08:31:37.193Z,15.96
2018-06-22T08:32:37.217Z,15.96
2018-06-22T08:33:37.236Z,15.86
2018-06-22T08:34:37.259Z,15.75
2018-06-22T08:35:37.281Z,15.60
2018-06-22T08:36:37.304Z,15.59
2018-06-22T08:37:37.323Z,15.49
2018-06-22T08:38:37.343Z,15.47
2018-06-22T08:39:37.368Z,15.47
2018-06-22T08:40:37.389Z,15.45
2018-06-22T08:41:37.425Z,15.34
2018-06-22T08:42:37.432Z,15.41
2018-06-22T08:43:37.453Z,15.44
2018-06-22T08:44:37.471Z,15.37
2018-06-22T08:45:37.496Z,15.20
2018-06-22T08:46:37.517Z,15.30
2018-06-22T08:47:37.540Z,15.25
2018-06-22T08:48:37.561Z,15.25
2018-06-22T08:49:37.575Z,15.30
2018-06-22T08:50:37.601Z,15.34
2018-06-22T08:51:37.622Z,16.04
2018-06-22T08:52:37.640Z,17.55
2018-06-22T08:53:37.660Z,18.42
2018-06-22T08:54:37.682Z,19.20
2018-06-22T08:55:37.739Z,19.52
2018-06-22T08:56:37.727Z,20.05
2018-06-22T08:57:37.746Z,20.15
2018-06-22T08:58:37.771Z,20.26
2018-06-22T08:59:37.790Z,19.93
2018-06-22T09:00:37.812Z,20.63
2018-06-22T09:01:37.831Z,20.48
2018-06-22T09:02:37.856Z,19.63
2018-06-22T09:03:37.879Z,18.57
2018-06-22T09:04:37.899Z,18.36
2018-06-22T09:05:37.924Z,19.49
2018-06-22T09:06:37.946Z,18.96
2018-06-22T09:07:37.971Z,19.02
2018-06-22T09:08:37.993Z,18.61
2018-06-22T09:09:38.015Z,18.26
2018-06-22T09:10:38.036Z,17.99
2018-06-22T09:11:38.062Z,17.99
2018-06-22T09:12:38.101Z,18.17
2018-06-22T09:13:38.109Z,18.10
2018-06-22T09:14:38.226Z,17.83
2018-06-22T09:15:38.159Z,17.79
2018-06-22T09:16:38.180Z,17.74
2018-06-22T09:17:38.202Z,17.32
2018-06-22T09:18:38.222Z,17.17
2018-06-22T09:19:38.261Z,17.47
2018-06-22T09:20:38.269Z,18.08
2018-06-22T09:21:38.293Z,18.93
2018-06-22T09:22:38.318Z,18.45
2018-06-22T09:23:38.342Z,18.39
2018-06-22T09:24:38.366Z,18.17
2018-06-22T09:25:38.386Z,18.38
2018-06-22T09:26:38.409Z,18.34
2018-06-22T09:27:38.432Z,18.06
2018-06-22T09:28:38.453Z,18.01
2018-06-22T09:29:38.477Z,17.79
2018-06-22T09:30:38.502Z,17.62
2018-06-22T09:31:38.524Z,17.36
2018-06-22T09:32:38.547Z,17.09
2018-06-22T09:33:38.567Z,16.87
2018-06-22T09:34:38.590Z,16.72
2018-06-22T09:35:38.612Z,16.57
2018-06-22T09:36:38.698Z,16.42
2018-06-22T09:37:38.663Z,16.32
2018-06-22T09:38:38.683Z,16.32
2018-06-22T09:39:38.706Z,16.21
2018-06-22T09:40:38.726Z,15.98
2018-06-22T09:41:38.747Z,15.91
2018-06-22T09:42:38.783Z,15.67
2018-06-22T09:43:38.795Z,15.63
2018-06-22T09:44:38.814Z,15.59
2018-06-22T09:45:38.836Z,15.59
2018-06-22T09:46:38.859Z,15.62
2018-06-22T09:47:38.881Z,15.84
2018-06-22T09:48:38.903Z,16.07
2018-06-22T09:49:38.923Z,16.04
2018-06-22T09:50:38.943Z,16.95
2018-06-22T09:51:38.969Z,18.42
2018-06-22T09:52:38.990Z,19.61
2018-06-22T09:53:39.009Z,19.90
2018-06-22T09:54:39.034Z,19.74
2018-06-22T09:55:39.055Z,19.49
2018-06-22T09:56:39.076Z,20.05
2018-06-22T09:57:39.100Z,20.56
2018-06-22T09:58:39.123Z,21.00
2018-06-22T09:59:39.144Z,21.06
2018-06-22T10:00:39.167Z,21.40
2018-06-22T10:01:39.191Z,21.59
2018-06-22T10:02:39.218Z,21.83
2018-06-22T10:03:39.236Z,21.77
2018-06-22T10:04:39.275Z,21.53
2018-06-22T10:05:39.281Z,20.49
2018-06-22T10:06:39.308Z,20.04
2018-06-22T10:07:39.333Z,20.04
2018-06-22T10:08:39.357Z,19.93
2018-06-22T10:09:39.381Z,20.12
2018-06-22T10:10:39.406Z,20.20
2018-06-22T10:11:39.428Z,19.82
2018-06-22T10:12:39.453Z,19.34
2018-06-22T10:13:39.478Z,19.38
2018-06-22T10:14:39.501Z,19.65
2018-06-22T10:15:39.527Z,19.46
2018-06-22T10:16:39.552Z,19.07
2018-06-22T10:17:39.579Z,19.19
2018-06-22T10:18:39.606Z,18.61
2018-06-22T10:19:39.657Z,18.44
2018-06-22T10:20:39.651Z,18.97
2018-06-22T10:21:39.678Z,19.78
2018-06-22T10:22:39.702Z,18.87
2018-06-22T10:23:39.725Z,18.79
2018-06-22T10:24:39.750Z,18.45
2018-06-22T10:25:39.776Z,18.26
2018-06-22T10:26:39.798Z,18.16
2018-06-22T10:27:39.822Z,18.03
2018-06-22T10:28:39.850Z,17.63
2018-06-22T10:29:39.870Z,17.62
2018-06-22T10:30:39.897Z,17.45
2018-06-22T10:31:39.920Z,17.25
2018-06-22T10:32:39.947Z,17.12
2018-06-22T10:33:39.970Z,17.03
2018-06-22T10:34:39.990Z,17.20
2018-06-22T10:35:40.018Z,17.30
2018-06-22T10:36:40.041Z,17.25
2018-06-22T10:37:40.064Z,17.21
2018-06-22T10:38:40.087Z,17.42
2018-06-22T10:39:40.108Z,17.94
2018-06-22T10:40:40.133Z,18.93
2018-06-22T10:41:40.157Z,20.05
2018-06-22T10:42:40.180Z,19.72
2018-06-22T10:43:40.201Z,19.60
2018-06-22T10:44:40.223Z,19.28
2018-06-22T10:45:40.303Z,19.60
2018-06-22T10:46:40.270Z,20.44
2018-06-22T10:47:40.294Z,20.96
2018-06-22T10:48:40.315Z,21.15
2018-06-22T10:49:40.339Z,21.85
2018-06-22T10:50:40.365Z,21.82
2018-06-22T10:51:40.579Z,21.52
2018-06-22T10:52:40.448Z,21.08
2018-06-22T10:53:40.433Z,21.18
2018-06-22T10:54:40.458Z,21.70
2018-06-22T10:55:40.485Z,22.05
2018-06-22T10:56:40.510Z,22.22
2018-06-22T10:57:40.534Z,22.00
2018-06-22T10:58:40.558Z,22.18
2018-06-22T10:59:40.598Z,22.15
2018-06-22T11:00:40.607Z,21.76
2018-06-22T11:01:40.633Z,22.08
2018-06-22T11:02:40.657Z,21.83
2018-06-22T11:03:40.686Z,21.99
2018-06-22T11:04:40.711Z,22.71
2018-06-22T11:05:40.747Z,22.48
2018-06-22T11:06:40.761Z,22.27
2018-06-22T11:07:40.786Z,21.64
2018-06-22T11:08:40.819Z,21.83
2018-06-22T11:09:40.842Z,22.45
2018-06-22T11:10:40.867Z,23.09
2018-06-22T11:11:40.891Z,22.66
2018-06-22T11:12:40.921Z,21.82
2018-06-22T11:13:40.947Z,22.39
2018-06-22T11:14:40.973Z,22.89
2018-06-22T11:15:41.019Z,21.74
2018-06-22T11:16:41.077Z,20.74
2018-06-22T11:17:41.053Z,20.30
2018-06-22T11:18:41.079Z,20.19
2018-06-22T11:19:41.103Z,20.19
2018-06-22T11:20:41.130Z,19.92
2018-06-22T11:21:41.156Z,19.60
2018-06-22T11:22:41.182Z,19.52
2018-06-22T11:23:41.212Z,19.57
2018-06-22T11:24:41.249Z,19.74
2018-06-22T11:25:41.261Z,19.47
2018-06-22T11:26:41.288Z,19.28
2018-06-22T11:27:41.312Z,19.17
2018-06-22T11:28:41.340Z,19.75
2018-06-22T11:29:41.363Z,20.19
2018-06-22T11:30:41.455Z,21.09
2018-06-22T11:31:41.414Z,21.25
2018-06-22T11:32:41.438Z,21.96
2018-06-22T11:33:41.463Z,21.67
2018-06-22T11:34:41.492Z,21.09
2018-06-22T11:35:41.544Z,20.78
2018-06-22T11:36:41.539Z,20.44
2018-06-22T11:37:41.563Z,20.02
2018-06-22T11:38:41.589Z,19.79
2018-06-22T11:39:41.613Z,19.65
2018-06-22T11:40:41.641Z,19.49
2018-06-22T11:41:41.662Z,19.17
2018-06-22T11:42:41.689Z,18.90
2018-06-22T11:43:41.714Z,18.78
2018-06-22T11:44:41.736Z,18.53
2018-06-22T11:45:41.760Z,18.31
2018-06-22T11:46:41.786Z,18.06
2018-06-22T11:47:41.811Z,17.94
2018-06-22T11:48:41.836Z,17.87
2018-06-22T11:49:41.857Z,17.90
2018-06-22T11:50:41.879Z,18.39
2018-06-22T11:51:41.903Z,18.50
2018-06-22T11:52:41.927Z,18.90
2018-06-22T11:53:41.952Z,18.99
2018-06-22T11:54:41.979Z,20.05
2018-06-22T11:55:42.000Z,20.94
2018-06-22T11:56:42.020Z,21.77
2018-06-22T11:57:42.044Z,22.36
2018-06-22T11:58:42.068Z,22.55
2018-06-22T11:59:42.089Z,22.61
2018-06-22T12:00:42.117Z,22.30
2018-06-22T12:01:42.143Z,22.66
2018-06-22T12:02:42.162Z,22.59
2018-06-22T12:03:42.187Z,22.79
2018-06-22T12:04:42.272Z,22.99
2018-06-22T12:05:42.236Z,23.41
2018-06-22T12:06:42.257Z,22.38
2018-06-22T12:07:42.283Z,21.70
2018-06-22T12:08:42.312Z,21.43
2018-06-22T12:09:42.334Z,20.98
2018-06-22T12:10:42.358Z,20.48
2018-06-22T12:11:42.383Z,19.83
2018-06-22T12:12:42.406Z,19.55
2018-06-22T12:13:42.429Z,19.56
2018-06-22T12:14:42.456Z,19.56
2018-06-22T12:15:42.480Z,19.50
2018-06-22T12:16:42.508Z,19.47
2018-06-22T12:17:42.532Z,19.42
2018-06-22T12:18:42.556Z,19.12
2018-06-22T12:19:42.580Z,19.05
2018-06-22T12:20:42.605Z,18.97
2018-06-22T12:21:42.628Z,18.86
2018-06-22T12:22:42.652Z,18.82
2018-06-22T12:23:42.674Z,18.76
2018-06-22T12:24:42.701Z,18.65
2018-06-22T12:25:42.723Z,18.60
2018-06-22T12:26:42.749Z,18.54
2018-06-22T12:27:42.780Z,18.60
2018-06-22T12:28:42.795Z,18.91
2018-06-22T12:29:42.817Z,19.02
2018-06-22T12:30:42.840Z,19.06
2018-06-22T12:31:42.866Z,19.13
2018-06-22T12:32:42.887Z,19.15
2018-06-22T12:33:42.910Z,19.09
2018-06-22T12:34:42.933Z,19.32
2018-06-22T12:35:42.957Z,19.80
2018-06-22T12:36:42.980Z,20.27
2018-06-22T12:37:43.003Z,20.67
2018-06-22T12:38:43.029Z,20.93
2018-06-22T12:39:43.052Z,20.94
2018-06-22T12:40:43.073Z,20.91
2018-06-22T12:41:43.095Z,20.68
2018-06-22T12:42:43.119Z,20.25
2018-06-22T12:43:43.145Z,20.04
2018-06-22T12:44:43.165Z,19.87
2018-06-22T12:45:43.194Z,19.80
2018-06-22T12:46:43.213Z,19.64
2018-06-22T12:47:43.237Z,19.32
2018-06-22T12:48:43.264Z,19.20
2018-06-22T12:49:43.279Z,18.87
2018-06-22T12:50:43.303Z,18.51
2018-06-22T12:51:43.329Z,18.08
2018-06-22T12:52:43.349Z,17.62